sensor_id;sensor_type;location;lat;lon;timestamp;P1;durP1;ratioP1;P2;durP2;ratioP2
34505;SDS011;20748;42.632;23.198;2023-09-18T00:00:57;12.25;;;6.85;;
34505;SDS011;20748;42.632;23.198;2023-09-18T00:03:30;11.95;;;7.45;;
34505;SDS011;20748;42.632;23.198;2023-09-18T00:06:04;12.63;;;8.10;;
34505;SDS011;20748;42.632;23.198;2023-09-18T00:08:38;11.10;;;7.20;;
34505;SDS011;20748;42.632;23.198;2023-09-18T00:11:12;12.82;;;7.55;;
34505;SDS011;20748;42.632;23.198;2023-09-18T00:13:48;14.32;;;7.68;;
34505;SDS011;20748;42.632;23.198;2023-09-18T00:16:22;12.07;;;6.80;;
34505;SDS011;20748;42.632;23.198;2023-09-18T00:18:57;14.25;;;6.78;;
34505;SDS011;20748;42.632;23.198;2023-09-18T00:21:31;10.95;;;7.18;;
34505;SDS011;20748;42.632;23.198;2023-09-18T00:24:05;12.70;;;7.68;;
34505;SDS011;20748;42.632;23.198;2023-09-18T00:26:40;16.20;;;7.68;;
34505;SDS011;20748;42.632;23.198;2023-09-18T00:29:15;14.70;;;7.90;;
34505;SDS011;20748;42.632;23.198;2023-09-18T00:31:49;11.52;;;7.43;;
34505;SDS011;20748;42.632;23.198;2023-09-18T00:34:23;11.50;;;6.60;;
34505;SDS011;20748;42.632;23.198;2023-09-18T00:36:57;14.77;;;7.85;;
34505;SDS011;20748;42.632;23.198;2023-09-18T00:39:31;15.25;;;7.28;;
34505;SDS011;20748;42.632;23.198;2023-09-18T00:42:05;11.75;;;6.35;;
34505;SDS011;20748;42.632;23.198;2023-09-18T00:44:40;10.75;;;6.32;;
34505;SDS011;20748;42.632;23.198;2023-09-18T00:47:14;12.23;;;7.85;;
34505;SDS011;20748;42.632;23.198;2023-09-18T00:49:49;12.30;;;7.22;;
34505;SDS011;20748;42.632;23.198;2023-09-18T00:52:25;13.40;;;7.22;;
34505;SDS011;20748;42.632;23.198;2023-09-18T00:55:00;11.88;;;6.90;;
34505;SDS011;20748;42.632;23.198;2023-09-18T00:57:36;11.15;;;6.90;;
34505;SDS011;20748;42.632;23.198;2023-09-18T01:00:13;10.50;;;6.85;;
34505;SDS011;20748;42.632;23.198;2023-09-18T01:02:50;11.32;;;7.13;;
34505;SDS011;20748;42.632;23.198;2023-09-18T01:05:24;14.05;;;7.15;;
34505;SDS011;20748;42.632;23.198;2023-09-18T01:07:59;11.43;;;6.70;;
34505;SDS011;20748;42.632;23.198;2023-09-18T01:10:35;12.48;;;6.60;;
34505;SDS011;20748;42.632;23.198;2023-09-18T01:13:14;15.43;;;7.00;;
34505;SDS011;20748;42.632;23.198;2023-09-18T01:15:57;11.13;;;6.43;;
34505;SDS011;20748;42.632;23.198;2023-09-18T01:18:39;10.10;;;6.68;;
34505;SDS011;20748;42.632;23.198;2023-09-18T01:21:22;13.05;;;6.95;;
34505;SDS011;20748;42.632;23.198;2023-09-18T01:23:57;13.77;;;8.02;;
34505;SDS011;20748;42.632;23.198;2023-09-18T01:26:31;13.07;;;8.43;;
34505;SDS011;20748;42.632;23.198;2023-09-18T01:29:05;10.48;;;6.60;;
34505;SDS011;20748;42.632;23.198;2023-09-18T01:31:39;10.93;;;6.93;;
34505;SDS011;20748;42.632;23.198;2023-09-18T01:34:13;13.27;;;7.88;;
34505;SDS011;20748;42.632;23.198;2023-09-18T01:36:49;12.32;;;6.80;;
34505;SDS011;20748;42.632;23.198;2023-09-18T01:39:26;14.85;;;8.23;;
34505;SDS011;20748;42.632;23.198;2023-09-18T01:42:04;11.68;;;6.15;;
34505;SDS011;20748;42.632;23.198;2023-09-18T01:44:39;12.48;;;7.07;;
34505;SDS011;20748;42.632;23.198;2023-09-18T01:47:14;12.50;;;7.18;;
34505;SDS011;20748;42.632;23.198;2023-09-18T01:49:51;11.82;;;7.35;;
34505;SDS011;20748;42.632;23.198;2023-09-18T01:52:24;15.20;;;8.10;;
34505;SDS011;20748;42.632;23.198;2023-09-18T01:55:00;12.48;;;7.07;;
34505;SDS011;20748;42.632;23.198;2023-09-18T01:57:34;14.88;;;7.60;;
34505;SDS011;20748;42.632;23.198;2023-09-18T02:00:09;12.25;;;7.70;;
34505;SDS011;20748;42.632;23.198;2023-09-18T02:02:44;13.73;;;8.15;;
34505;SDS011;20748;42.632;23.198;2023-09-18T02:05:39;13.73;;;8.30;;
34505;SDS011;20748;42.632;23.198;2023-09-18T02:08:14;12.82;;;7.38;;
34505;SDS011;20748;42.632;23.198;2023-09-18T02:10:49;15.05;;;7.90;;
34505;SDS011;20748;42.632;23.198;2023-09-18T02:13:23;13.27;;;7.22;;
34505;SDS011;20748;42.632;23.198;2023-09-18T02:15:57;12.25;;;7.20;;
34505;SDS011;20748;42.632;23.198;2023-09-18T02:18:32;13.05;;;8.10;;
34505;SDS011;20748;42.632;23.198;2023-09-18T02:21:06;21.85;;;11.48;;
34505;SDS011;20748;42.632;23.198;2023-09-18T02:23:40;33.97;;;17.02;;
34505;SDS011;20748;42.632;23.198;2023-09-18T02:26:15;23.17;;;11.93;;
34505;SDS011;20748;42.632;23.198;2023-09-18T02:28:51;16.52;;;9.20;;
34505;SDS011;20748;42.632;23.198;2023-09-18T02:31:26;12.32;;;7.07;;
34505;SDS011;20748;42.632;23.198;2023-09-18T02:34:00;12.05;;;7.45;;
34505;SDS011;20748;42.632;23.198;2023-09-18T02:36:34;18.20;;;7.53;;
34505;SDS011;20748;42.632;23.198;2023-09-18T02:39:09;16.60;;;6.82;;
34505;SDS011;20748;42.632;23.198;2023-09-18T02:41:45;11.27;;;6.78;;
34505;SDS011;20748;42.632;23.198;2023-09-18T02:44:18;11.45;;;6.85;;
34505;SDS011;20748;42.632;23.198;2023-09-18T02:46:52;16.25;;;8.88;;
34505;SDS011;20748;42.632;23.198;2023-09-18T02:49:26;10.65;;;6.72;;
34505;SDS011;20748;42.632;23.198;2023-09-18T02:52:02;13.13;;;6.93;;
34505;SDS011;20748;42.632;23.198;2023-09-18T02:54:36;11.70;;;6.57;;
34505;SDS011;20748;42.632;23.198;2023-09-18T02:57:11;16.98;;;7.97;;
34505;SDS011;20748;42.632;23.198;2023-09-18T02:59:45;12.05;;;7.10;;
34505;SDS011;20748;42.632;23.198;2023-09-18T03:02:19;11.73;;;7.07;;
34505;SDS011;20748;42.632;23.198;2023-09-18T03:04:53;11.73;;;6.20;;
34505;SDS011;20748;42.632;23.198;2023-09-18T03:07:27;15.27;;;7.53;;
34505;SDS011;20748;42.632;23.198;2023-09-18T03:10:01;14.43;;;7.68;;
34505;SDS011;20748;42.632;23.198;2023-09-18T03:12:38;15.40;;;7.38;;
34505;SDS011;20748;42.632;23.198;2023-09-18T03:15:12;10.20;;;6.65;;
34505;SDS011;20748;42.632;23.198;2023-09-18T03:17:46;13.40;;;6.75;;
34505;SDS011;20748;42.632;23.198;2023-09-18T03:20:21;13.77;;;7.20;;
34505;SDS011;20748;42.632;23.198;2023-09-18T03:22:57;16.40;;;7.90;;
34505;SDS011;20748;42.632;23.198;2023-09-18T03:25:31;12.02;;;7.57;;
34505;SDS011;20748;42.632;23.198;2023-09-18T03:28:25;17.08;;;8.00;;
34505;SDS011;20748;42.632;23.198;2023-09-18T03:30:59;13.07;;;7.82;;
34505;SDS011;20748;42.632;23.198;2023-09-18T03:33:34;12.00;;;7.30;;
34505;SDS011;20748;42.632;23.198;2023-09-18T03:36:08;15.45;;;8.02;;
34505;SDS011;20748;42.632;23.198;2023-09-18T03:38:43;14.38;;;6.93;;
34505;SDS011;20748;42.632;23.198;2023-09-18T03:41:17;14.25;;;8.30;;
34505;SDS011;20748;42.632;23.198;2023-09-18T03:43:53;12.27;;;6.85;;
34505;SDS011;20748;42.632;23.198;2023-09-18T03:46:26;16.55;;;8.23;;
34505;SDS011;20748;42.632;23.198;2023-09-18T03:49:01;10.65;;;6.43;;
34505;SDS011;20748;42.632;23.198;2023-09-18T03:51:37;16.35;;;8.27;;
34505;SDS011;20748;42.632;23.198;2023-09-18T03:54:11;12.07;;;7.72;;
34505;SDS011;20748;42.632;23.198;2023-09-18T03:56:45;11.98;;;6.97;;
34505;SDS011;20748;42.632;23.198;2023-09-18T03:59:20;12.38;;;6.90;;
34505;SDS011;20748;42.632;23.198;2023-09-18T04:01:54;13.18;;;7.35;;
34505;SDS011;20748;42.632;23.198;2023-09-18T04:04:28;12.52;;;7.93;;
34505;SDS011;20748;42.632;23.198;2023-09-18T04:07:05;14.35;;;7.22;;
34505;SDS011;20748;42.632;23.198;2023-09-18T04:09:39;12.43;;;6.78;;
34505;SDS011;20748;42.632;23.198;2023-09-18T04:12:13;12.77;;;7.40;;
34505;SDS011;20748;42.632;23.198;2023-09-18T04:14:49;13.60;;;7.50;;
34505;SDS011;20748;42.632;23.198;2023-09-18T04:17:23;12.13;;;7.15;;
34505;SDS011;20748;42.632;23.198;2023-09-18T04:19:57;13.15;;;7.22;;
34505;SDS011;20748;42.632;23.198;2023-09-18T04:22:32;11.23;;;7.18;;
34505;SDS011;20748;42.632;23.198;2023-09-18T04:25:07;14.27;;;7.00;;
34505;SDS011;20748;42.632;23.198;2023-09-18T04:27:40;15.40;;;6.72;;
34505;SDS011;20748;42.632;23.198;2023-09-18T04:30:16;13.45;;;7.78;;
34505;SDS011;20748;42.632;23.198;2023-09-18T04:32:52;13.65;;;8.32;;
34505;SDS011;20748;42.632;23.198;2023-09-18T04:35:27;12.73;;;7.60;;
34505;SDS011;20748;42.632;23.198;2023-09-18T04:38:01;16.60;;;8.40;;
34505;SDS011;20748;42.632;23.198;2023-09-18T04:40:35;15.40;;;8.90;;
34505;SDS011;20748;42.632;23.198;2023-09-18T04:43:11;11.80;;;8.20;;
34505;SDS011;20748;42.632;23.198;2023-09-18T04:45:47;16.08;;;8.73;;
34505;SDS011;20748;42.632;23.198;2023-09-18T04:48:21;14.43;;;8.60;;
34505;SDS011;20748;42.632;23.198;2023-09-18T04:50:55;13.00;;;8.35;;
34505;SDS011;20748;42.632;23.198;2023-09-18T04:53:30;15.48;;;8.30;;
34505;SDS011;20748;42.632;23.198;2023-09-18T04:56:05;13.90;;;7.68;;
34505;SDS011;20748;42.632;23.198;2023-09-18T04:58:40;16.90;;;8.68;;
34505;SDS011;20748;42.632;23.198;2023-09-18T05:01:15;16.27;;;8.63;;
34505;SDS011;20748;42.632;23.198;2023-09-18T05:03:50;14.98;;;7.07;;
34505;SDS011;20748;42.632;23.198;2023-09-18T05:06:24;15.30;;;7.10;;
34505;SDS011;20748;42.632;23.198;2023-09-18T05:08:58;15.73;;;7.50;;
34505;SDS011;20748;42.632;23.198;2023-09-18T05:11:32;18.23;;;14.07;;
34505;SDS011;20748;42.632;23.198;2023-09-18T05:14:06;15.15;;;8.02;;
34505;SDS011;20748;42.632;23.198;2023-09-18T05:16:41;16.10;;;7.80;;
34505;SDS011;20748;42.632;23.198;2023-09-18T05:19:15;16.50;;;7.13;;
34505;SDS011;20748;42.632;23.198;2023-09-18T05:21:49;12.73;;;7.57;;
34505;SDS011;20748;42.632;23.198;2023-09-18T05:24:23;17.30;;;8.23;;
34505;SDS011;20748;42.632;23.198;2023-09-18T05:26:59;17.13;;;8.73;;
34505;SDS011;20748;42.632;23.198;2023-09-18T05:29:33;16.15;;;8.25;;
34505;SDS011;20748;42.632;23.198;2023-09-18T05:32:10;14.50;;;7.90;;
34505;SDS011;20748;42.632;23.198;2023-09-18T05:34:44;15.48;;;7.75;;
34505;SDS011;20748;42.632;23.198;2023-09-18T05:37:18;13.50;;;8.45;;
34505;SDS011;20748;42.632;23.198;2023-09-18T05:39:52;15.27;;;7.78;;
34505;SDS011;20748;42.632;23.198;2023-09-18T05:42:26;15.10;;;7.90;;
34505;SDS011;20748;42.632;23.198;2023-09-18T05:44:59;14.20;;;8.27;;
34505;SDS011;20748;42.632;23.198;2023-09-18T05:47:35;13.20;;;7.90;;
34505;SDS011;20748;42.632;23.198;2023-09-18T05:50:11;19.23;;;9.25;;
34505;SDS011;20748;42.632;23.198;2023-09-18T05:52:47;14.20;;;9.23;;
34505;SDS011;20748;42.632;23.198;2023-09-18T05:55:21;17.20;;;9.70;;
34505;SDS011;20748;42.632;23.198;2023-09-18T05:57:56;16.98;;;9.70;;
34505;SDS011;20748;42.632;23.198;2023-09-18T06:00:30;19.30;;;10.25;;
34505;SDS011;20748;42.632;23.198;2023-09-18T06:03:06;16.67;;;9.95;;
34505;SDS011;20748;42.632;23.198;2023-09-18T06:05:42;20.48;;;9.82;;
34505;SDS011;20748;42.632;23.198;2023-09-18T06:08:16;21.02;;;10.32;;
34505;SDS011;20748;42.632;23.198;2023-09-18T06:10:51;24.73;;;11.68;;
34505;SDS011;20748;42.632;23.198;2023-09-18T06:13:25;19.38;;;10.43;;
34505;SDS011;20748;42.632;23.198;2023-09-18T06:15:59;22.05;;;11.70;;
34505;SDS011;20748;42.632;23.198;2023-09-18T06:18:40;18.33;;;9.02;;
34505;SDS011;20748;42.632;23.198;2023-09-18T06:21:16;20.45;;;11.48;;
34505;SDS011;20748;42.632;23.198;2023-09-18T06:23:49;22.92;;;11.02;;
34505;SDS011;20748;42.632;23.198;2023-09-18T06:26:24;17.55;;;9.20;;
34505;SDS011;20748;42.632;23.198;2023-09-18T06:28:57;17.25;;;10.23;;
34505;SDS011;20748;42.632;23.198;2023-09-18T06:31:32;17.58;;;10.63;;
34505;SDS011;20748;42.632;23.198;2023-09-18T06:34:07;17.23;;;9.65;;
34505;SDS011;20748;42.632;23.198;2023-09-18T06:36:41;22.80;;;11.13;;
34505;SDS011;20748;42.632;23.198;2023-09-18T06:39:14;21.65;;;12.13;;
34505;SDS011;20748;42.632;23.198;2023-09-18T06:41:48;20.60;;;11.00;;
34505;SDS011;20748;42.632;23.198;2023-09-18T06:44:24;18.70;;;11.23;;
34505;SDS011;20748;42.632;23.198;2023-09-18T06:46:58;20.27;;;12.77;;
34505;SDS011;20748;42.632;23.198;2023-09-18T06:49:33;22.05;;;11.82;;
34505;SDS011;20748;42.632;23.198;2023-09-18T06:52:07;23.40;;;11.90;;
34505;SDS011;20748;42.632;23.198;2023-09-18T06:54:43;19.27;;;10.98;;
34505;SDS011;20748;42.632;23.198;2023-09-18T06:57:16;21.23;;;12.50;;
34505;SDS011;20748;42.632;23.198;2023-09-18T06:59:52;20.33;;;11.25;;
34505;SDS011;20748;42.632;23.198;2023-09-18T07:02:26;21.17;;;12.43;;
34505;SDS011;20748;42.632;23.198;2023-09-18T07:05:01;21.98;;;12.30;;
34505;SDS011;20748;42.632;23.198;2023-09-18T07:07:35;25.73;;;13.40;;
34505;SDS011;20748;42.632;23.198;2023-09-18T07:10:09;18.50;;;11.00;;
34505;SDS011;20748;42.632;23.198;2023-09-18T07:12:44;21.42;;;11.75;;
34505;SDS011;20748;42.632;23.198;2023-09-18T07:15:18;22.08;;;11.68;;
34505;SDS011;20748;42.632;23.198;2023-09-18T07:17:52;21.77;;;11.63;;
34505;SDS011;20748;42.632;23.198;2023-09-18T07:20:27;20.63;;;12.15;;
34505;SDS011;20748;42.632;23.198;2023-09-18T07:23:02;23.20;;;11.48;;
34505;SDS011;20748;42.632;23.198;2023-09-18T07:25:36;20.73;;;11.68;;
34505;SDS011;20748;42.632;23.198;2023-09-18T07:28:11;18.17;;;10.70;;
34505;SDS011;20748;42.632;23.198;2023-09-18T07:30:49;22.75;;;13.07;;
34505;SDS011;20748;42.632;23.198;2023-09-18T07:33:23;19.65;;;11.65;;
34505;SDS011;20748;42.632;23.198;2023-09-18T07:35:58;23.67;;;12.13;;
34505;SDS011;20748;42.632;23.198;2023-09-18T07:38:32;20.83;;;12.10;;
34505;SDS011;20748;42.632;23.198;2023-09-18T07:41:06;21.35;;;12.57;;
34505;SDS011;20748;42.632;23.198;2023-09-18T07:43:40;20.02;;;12.60;;
34505;SDS011;20748;42.632;23.198;2023-09-18T07:46:14;22.42;;;12.10;;
34505;SDS011;20748;42.632;23.198;2023-09-18T07:48:48;24.75;;;13.80;;
34505;SDS011;20748;42.632;23.198;2023-09-18T07:51:24;22.35;;;13.13;;
34505;SDS011;20748;42.632;23.198;2023-09-18T07:53:58;22.23;;;12.70;;
34505;SDS011;20748;42.632;23.198;2023-09-18T07:56:31;23.50;;;12.50;;
34505;SDS011;20748;42.632;23.198;2023-09-18T07:59:06;24.00;;;13.25;;
34505;SDS011;20748;42.632;23.198;2023-09-18T08:01:43;19.48;;;12.25;;
34505;SDS011;20748;42.632;23.198;2023-09-18T08:04:17;25.80;;;13.48;;
34505;SDS011;20748;42.632;23.198;2023-09-18T08:06:52;21.15;;;11.45;;
34505;SDS011;20748;42.632;23.198;2023-09-18T08:09:26;19.20;;;11.13;;
34505;SDS011;20748;42.632;23.198;2023-09-18T08:12:01;21.38;;;12.82;;
34505;SDS011;20748;42.632;23.198;2023-09-18T08:14:35;20.70;;;12.40;;
34505;SDS011;20748;42.632;23.198;2023-09-18T08:17:10;21.83;;;12.88;;
34505;SDS011;20748;42.632;23.198;2023-09-18T08:19:44;22.15;;;12.45;;
34505;SDS011;20748;42.632;23.198;2023-09-18T08:22:19;21.25;;;11.13;;
34505;SDS011;20748;42.632;23.198;2023-09-18T08:24:53;18.10;;;10.52;;
34505;SDS011;20748;42.632;23.198;2023-09-18T08:27:27;19.10;;;11.15;;
34505;SDS011;20748;42.632;23.198;2023-09-18T08:30:01;16.95;;;10.30;;
34505;SDS011;20748;42.632;23.198;2023-09-18T08:32:35;17.98;;;11.35;;
34505;SDS011;20748;42.632;23.198;2023-09-18T08:35:09;19.02;;;11.13;;
34505;SDS011;20748;42.632;23.198;2023-09-18T08:37:45;21.48;;;11.20;;
34505;SDS011;20748;42.632;23.198;2023-09-18T08:40:19;16.75;;;9.63;;
34505;SDS011;20748;42.632;23.198;2023-09-18T08:42:52;19.73;;;10.50;;
34505;SDS011;20748;42.632;23.198;2023-09-18T08:48:08;19.75;;;9.93;;
34505;SDS011;20748;42.632;23.198;2023-09-18T08:50:43;17.10;;;10.20;;
34505;SDS011;20748;42.632;23.198;2023-09-18T08:53:19;15.73;;;9.82;;
34505;SDS011;20748;42.632;23.198;2023-09-18T08:55:53;13.75;;;8.43;;
34505;SDS011;20748;42.632;23.198;2023-09-18T08:58:30;18.63;;;10.05;;
34505;SDS011;20748;42.632;23.198;2023-09-18T09:01:06;15.25;;;9.18;;
34505;SDS011;20748;42.632;23.198;2023-09-18T09:03:42;16.58;;;9.55;;
34505;SDS011;20748;42.632;23.198;2023-09-18T09:06:17;15.85;;;8.95;;
34505;SDS011;20748;42.632;23.198;2023-09-18T09:08:52;16.17;;;10.18;;
34505;SDS011;20748;42.632;23.198;2023-09-18T09:11:27;15.43;;;8.82;;
34505;SDS011;20748;42.632;23.198;2023-09-18T09:14:08;13.82;;;7.80;;
34505;SDS011;20748;42.632;23.198;2023-09-18T09:16:46;13.32;;;8.05;;
34505;SDS011;20748;42.632;23.198;2023-09-18T09:19:27;12.05;;;7.38;;
34505;SDS011;20748;42.632;23.198;2023-09-18T09:22:02;11.55;;;6.47;;
34505;SDS011;20748;42.632;23.198;2023-09-18T09:24:40;11.30;;;6.85;;
34505;SDS011;20748;42.632;23.198;2023-09-18T09:27:14;13.82;;;7.75;;
34505;SDS011;20748;42.632;23.198;2023-09-18T09:29:57;13.30;;;6.90;;
34505;SDS011;20748;42.632;23.198;2023-09-18T09:32:32;12.52;;;7.93;;
34505;SDS011;20748;42.632;23.198;2023-09-18T09:35:06;11.68;;;7.60;;
34505;SDS011;20748;42.632;23.198;2023-09-18T09:37:40;12.55;;;7.55;;
34505;SDS011;20748;42.632;23.198;2023-09-18T09:40:16;11.27;;;6.68;;
34505;SDS011;20748;42.632;23.198;2023-09-18T09:42:52;9.50;;;6.53;;
34505;SDS011;20748;42.632;23.198;2023-09-18T09:45:33;11.07;;;5.95;;
34505;SDS011;20748;42.632;23.198;2023-09-18T09:48:08;9.23;;;5.82;;
34505;SDS011;20748;42.632;23.198;2023-09-18T09:50:45;12.27;;;5.45;;
34505;SDS011;20748;42.632;23.198;2023-09-18T09:53:24;10.90;;;6.03;;
34505;SDS011;20748;42.632;23.198;2023-09-18T09:56:17;11.18;;;5.55;;
34505;SDS011;20748;42.632;23.198;2023-09-18T09:59:00;8.32;;;5.35;;
34505;SDS011;20748;42.632;23.198;2023-09-18T10:01:35;8.32;;;5.75;;
34505;SDS011;20748;42.632;23.198;2023-09-18T10:04:11;10.32;;;5.68;;
34505;SDS011;20748;42.632;23.198;2023-09-18T10:06:50;9.27;;;5.85;;
34505;SDS011;20748;42.632;23.198;2023-09-18T10:09:25;8.48;;;5.53;;
34505;SDS011;20748;42.632;23.198;2023-09-18T10:12:03;8.45;;;5.43;;
34505;SDS011;20748;42.632;23.198;2023-09-18T10:14:43;7.93;;;4.82;;
34505;SDS011;20748;42.632;23.198;2023-09-18T10:17:33;7.30;;;4.65;;
34505;SDS011;20748;42.632;23.198;2023-09-18T10:20:11;8.70;;;5.65;;
34505;SDS011;20748;42.632;23.198;2023-09-18T10:22:53;7.55;;;4.43;;
34505;SDS011;20748;42.632;23.198;2023-09-18T10:25:30;7.85;;;4.70;;
34505;SDS011;20748;42.632;23.198;2023-09-18T10:28:06;7.95;;;4.43;;
34505;SDS011;20748;42.632;23.198;2023-09-18T10:30:41;9.07;;;4.20;;
34505;SDS011;20748;42.632;23.198;2023-09-18T10:33:16;6.90;;;4.57;;
34505;SDS011;20748;42.632;23.198;2023-09-18T10:35:50;12.38;;;4.57;;
34505;SDS011;20748;42.632;23.198;2023-09-18T10:38:26;9.00;;;4.28;;
34505;SDS011;20748;42.632;23.198;2023-09-18T10:41:02;8.05;;;4.85;;
34505;SDS011;20748;42.632;23.198;2023-09-18T10:43:38;7.78;;;5.13;;
34505;SDS011;20748;42.632;23.198;2023-09-18T10:46:12;6.90;;;4.55;;
34505;SDS011;20748;42.632;23.198;2023-09-18T10:48:46;6.85;;;4.45;;
34505;SDS011;20748;42.632;23.198;2023-09-18T10:51:21;10.50;;;5.20;;
34505;SDS011;20748;42.632;23.198;2023-09-18T10:53:56;9.98;;;5.30;;
34505;SDS011;20748;42.632;23.198;2023-09-18T10:56:31;7.28;;;5.10;;
34505;SDS011;20748;42.632;23.198;2023-09-18T10:59:07;7.75;;;4.78;;
34505;SDS011;20748;42.632;23.198;2023-09-18T11:01:41;7.45;;;4.82;;
34505;SDS011;20748;42.632;23.198;2023-09-18T11:04:17;7.40;;;4.90;;
34505;SDS011;20748;42.632;23.198;2023-09-18T11:07:02;7.25;;;4.75;;
34505;SDS011;20748;42.632;23.198;2023-09-18T11:09:41;7.10;;;5.20;;
34505;SDS011;20748;42.632;23.198;2023-09-18T11:12:17;6.68;;;4.05;;
34505;SDS011;20748;42.632;23.198;2023-09-18T11:14:57;8.80;;;5.53;;
34505;SDS011;20748;42.632;23.198;2023-09-18T11:17:34;6.25;;;4.43;;
34505;SDS011;20748;42.632;23.198;2023-09-18T11:20:15;6.28;;;4.43;;
34505;SDS011;20748;42.632;23.198;2023-09-18T11:22:55;8.63;;;4.30;;
34505;SDS011;20748;42.632;23.198;2023-09-18T11:25:40;6.78;;;4.72;;
34505;SDS011;20748;42.632;23.198;2023-09-18T11:28:14;5.30;;;3.85;;
34505;SDS011;20748;42.632;23.198;2023-09-18T11:30:51;9.65;;;5.18;;
34505;SDS011;20748;42.632;23.198;2023-09-18T11:33:34;6.20;;;4.28;;
34505;SDS011;20748;42.632;23.198;2023-09-18T11:36:11;12.07;;;4.88;;
34505;SDS011;20748;42.632;23.198;2023-09-18T11:38:54;6.60;;;4.25;;
34505;SDS011;20748;42.632;23.198;2023-09-18T11:41:33;8.77;;;4.90;;
34505;SDS011;20748;42.632;23.198;2023-09-18T11:47:15;6.43;;;4.20;;
34505;SDS011;20748;42.632;23.198;2023-09-18T11:49:54;6.35;;;4.53;;
34505;SDS011;20748;42.632;23.198;2023-09-18T11:52:31;6.88;;;4.60;;
34505;SDS011;20748;42.632;23.198;2023-09-18T11:55:08;6.65;;;4.50;;
34505;SDS011;20748;42.632;23.198;2023-09-18T11:57:41;6.85;;;4.70;;
34505;SDS011;20748;42.632;23.198;2023-09-18T12:00:19;7.95;;;5.05;;
34505;SDS011;20748;42.632;23.198;2023-09-18T12:03:07;7.32;;;4.38;;
34505;SDS011;20748;42.632;23.198;2023-09-18T12:05:49;7.85;;;4.43;;
34505;SDS011;20748;42.632;23.198;2023-09-18T12:08:25;7.20;;;4.47;;
34505;SDS011;20748;42.632;23.198;2023-09-18T12:10:59;8.95;;;4.93;;
34505;SDS011;20748;42.632;23.198;2023-09-18T12:13:38;6.30;;;4.60;;
34505;SDS011;20748;42.632;23.198;2023-09-18T12:16:12;6.47;;;4.20;;
34505;SDS011;20748;42.632;23.198;2023-09-18T12:18:48;8.25;;;4.63;;
34505;SDS011;20748;42.632;23.198;2023-09-18T12:21:22;6.32;;;4.00;;
34505;SDS011;20748;42.632;23.198;2023-09-18T12:23:56;5.95;;;3.78;;
34505;SDS011;20748;42.632;23.198;2023-09-18T12:26:30;5.57;;;4.07;;
34505;SDS011;20748;42.632;23.198;2023-09-18T12:29:05;8.48;;;4.40;;
34505;SDS011;20748;42.632;23.198;2023-09-18T12:31:39;5.53;;;4.20;;
34505;SDS011;20748;42.632;23.198;2023-09-18T12:34:15;6.53;;;4.05;;
34505;SDS011;20748;42.632;23.198;2023-09-18T12:39:31;6.47;;;4.10;;
34505;SDS011;20748;42.632;23.198;2023-09-18T12:42:06;5.57;;;4.20;;
34505;SDS011;20748;42.632;23.198;2023-09-18T12:44:40;6.00;;;4.15;;
34505;SDS011;20748;42.632;23.198;2023-09-18T12:47:14;5.40;;;4.05;;
34505;SDS011;20748;42.632;23.198;2023-09-18T12:49:50;7.43;;;4.13;;
34505;SDS011;20748;42.632;23.198;2023-09-18T12:52:23;5.78;;;4.05;;
34505;SDS011;20748;42.632;23.198;2023-09-18T12:54:57;6.03;;;4.38;;
34505;SDS011;20748;42.632;23.198;2023-09-18T12:57:31;7.97;;;5.40;;
34505;SDS011;20748;42.632;23.198;2023-09-18T13:00:09;5.97;;;4.32;;
34505;SDS011;20748;42.632;23.198;2023-09-18T13:02:44;6.68;;;4.70;;
34505;SDS011;20748;42.632;23.198;2023-09-18T13:05:20;5.20;;;3.88;;
34505;SDS011;20748;42.632;23.198;2023-09-18T13:08:02;6.30;;;4.32;;
34505;SDS011;20748;42.632;23.198;2023-09-18T13:10:42;8.60;;;4.93;;
34505;SDS011;20748;42.632;23.198;2023-09-18T13:13:17;8.52;;;4.63;;
34505;SDS011;20748;42.632;23.198;2023-09-18T13:15:52;6.20;;;3.88;;
34505;SDS011;20748;42.632;23.198;2023-09-18T13:18:27;6.25;;;4.05;;
34505;SDS011;20748;42.632;23.198;2023-09-18T13:21:09;6.75;;;5.30;;
34505;SDS011;20748;42.632;23.198;2023-09-18T13:23:44;7.18;;;4.07;;
34505;SDS011;20748;42.632;23.198;2023-09-18T13:26:18;5.68;;;3.72;;
34505;SDS011;20748;42.632;23.198;2023-09-18T13:28:52;6.82;;;4.13;;
34505;SDS011;20748;42.632;23.198;2023-09-18T13:31:25;7.22;;;4.60;;
34505;SDS011;20748;42.632;23.198;2023-09-18T13:34:01;5.53;;;4.20;;
34505;SDS011;20748;42.632;23.198;2023-09-18T13:36:39;6.95;;;4.20;;
34505;SDS011;20748;42.632;23.198;2023-09-18T13:39:13;6.30;;;4.57;;
34505;SDS011;20748;42.632;23.198;2023-09-18T13:41:49;6.35;;;4.28;;
34505;SDS011;20748;42.632;23.198;2023-09-18T13:44:23;7.75;;;4.68;;
34505;SDS011;20748;42.632;23.198;2023-09-18T13:46:57;6.55;;;4.38;;
34505;SDS011;20748;42.632;23.198;2023-09-18T13:49:31;7.78;;;3.88;;
34505;SDS011;20748;42.632;23.198;2023-09-18T13:52:06;5.75;;;4.30;;
34505;SDS011;20748;42.632;23.198;2023-09-18T13:54:40;5.70;;;4.13;;
34505;SDS011;20748;42.632;23.198;2023-09-18T13:57:21;6.18;;;4.53;;
34505;SDS011;20748;42.632;23.198;2023-09-18T13:59:55;6.97;;;3.72;;
34505;SDS011;20748;42.632;23.198;2023-09-18T14:02:29;5.47;;;3.92;;
34505;SDS011;20748;42.632;23.198;2023-09-18T14:05:04;7.50;;;4.68;;
34505;SDS011;20748;42.632;23.198;2023-09-18T14:07:40;4.95;;;3.40;;
34505;SDS011;20748;42.632;23.198;2023-09-18T14:10:14;5.97;;;4.35;;
34505;SDS011;20748;42.632;23.198;2023-09-18T14:12:50;6.15;;;3.97;;
34505;SDS011;20748;42.632;23.198;2023-09-18T14:15:24;6.07;;;4.35;;
34505;SDS011;20748;42.632;23.198;2023-09-18T14:17:58;5.30;;;4.05;;
34505;SDS011;20748;42.632;23.198;2023-09-18T14:20:33;6.60;;;3.80;;
34505;SDS011;20748;42.632;23.198;2023-09-18T14:23:08;5.75;;;4.22;;
34505;SDS011;20748;42.632;23.198;2023-09-18T14:25:42;7.40;;;4.30;;
34505;SDS011;20748;42.632;23.198;2023-09-18T14:28:16;5.22;;;3.95;;
34505;SDS011;20748;42.632;23.198;2023-09-18T14:30:49;6.72;;;4.60;;
34505;SDS011;20748;42.632;23.198;2023-09-18T14:33:23;7.38;;;4.13;;
34505;SDS011;20748;42.632;23.198;2023-09-18T14:35:57;6.10;;;4.40;;
34505;SDS011;20748;42.632;23.198;2023-09-18T14:38:33;5.30;;;4.28;;
34505;SDS011;20748;42.632;23.198;2023-09-18T14:41:06;6.22;;;4.47;;
34505;SDS011;20748;42.632;23.198;2023-09-18T14:43:41;9.25;;;4.95;;
34505;SDS011;20748;42.632;23.198;2023-09-18T14:46:15;6.07;;;4.13;;
34505;SDS011;20748;42.632;23.198;2023-09-18T14:48:49;6.07;;;4.13;;
34505;SDS011;20748;42.632;23.198;2023-09-18T14:51:23;7.65;;;4.45;;
34505;SDS011;20748;42.632;23.198;2023-09-18T14:53:58;5.93;;;4.28;;
34505;SDS011;20748;42.632;23.198;2023-09-18T14:56:33;6.13;;;4.28;;
34505;SDS011;20748;42.632;23.198;2023-09-18T14:59:07;5.72;;;4.00;;
34505;SDS011;20748;42.632;23.198;2023-09-18T15:01:41;7.57;;;4.22;;
34505;SDS011;20748;42.632;23.198;2023-09-18T15:04:16;4.90;;;3.78;;
34505;SDS011;20748;42.632;23.198;2023-09-18T15:06:50;5.32;;;3.72;;
34505;SDS011;20748;42.632;23.198;2023-09-18T15:09:25;6.95;;;5.00;;
34505;SDS011;20748;42.632;23.198;2023-09-18T15:11:58;6.35;;;4.03;;
34505;SDS011;20748;42.632;23.198;2023-09-18T15:14:33;8.63;;;4.57;;
34505;SDS011;20748;42.632;23.198;2023-09-18T15:17:07;6.75;;;4.13;;
34505;SDS011;20748;42.632;23.198;2023-09-18T15:19:41;7.63;;;4.65;;